sensor_id;sensor_type;location;lat;lon;timestamp;P1;durP1;ratioP1;P2;durP2;ratioP2
23290;SDS011;11814;44.686;10.842;2023-03-01T00:02:20;45.83;;;28.80;;
23290;SDS011;11814;44.686;10.842;2023-03-01T00:04:46;48.20;;;30.45;;
23290;SDS011;11814;44.686;10.842;2023-03-01T00:07:12;44.67;;;29.65;;
23290;SDS011;11814;44.686;10.842;2023-03-01T00:09:38;43.47;;;28.27;;
23290;SDS011;11814;44.686;10.842;2023-03-01T00:12:05;44.22;;;28.55;;
23290;SDS011;11814;44.686;10.842;2023-03-01T00:14:31;46.70;;;27.88;;
23290;SDS011;11814;44.686;10.842;2023-03-01T00:16:57;46.53;;;28.55;;
23290;SDS011;11814;44.686;10.842;2023-03-01T00:19:23;43.05;;;27.88;;
23290;SDS011;11814;44.686;10.842;2023-03-01T00:21:49;45.50;;;27.75;;
23290;SDS011;11814;44.686;10.842;2023-03-01T00:24:15;41.65;;;26.42;;
23290;SDS011;11814;44.686;10.842;2023-03-01T00:26:41;41.97;;;25.40;;
23290;SDS011;11814;44.686;10.842;2023-03-01T00:29:06;42.53;;;25.95;;
23290;SDS011;11814;44.686;10.842;2023-03-01T00:31:32;38.03;;;23.42;;
23290;SDS011;11814;44.686;10.842;2023-03-01T00:34:00;38.58;;;24.95;;
23290;SDS011;11814;44.686;10.842;2023-03-01T00:36:31;34.03;;;23.02;;
23290;SDS011;11814;44.686;10.842;2023-03-01T00:38:59;34.42;;;22.83;;
23290;SDS011;11814;44.686;10.842;2023-03-01T00:41:25;37.63;;;23.02;;
23290;SDS011;11814;44.686;10.842;2023-03-01T00:43:53;33.88;;;22.88;;
23290;SDS011;11814;44.686;10.842;2023-03-01T00:46:21;41.92;;;25.10;;
23290;SDS011;11814;44.686;10.842;2023-03-01T00:48:48;36.03;;;24.00;;
23290;SDS011;11814;44.686;10.842;2023-03-01T00:53:45;40.50;;;24.88;;
23290;SDS011;11814;44.686;10.842;2023-03-01T00:56:12;37.60;;;23.70;;
23290;SDS011;11814;44.686;10.842;2023-03-01T00:58:38;37.85;;;22.75;;
23290;SDS011;11814;44.686;10.842;2023-03-01T01:01:12;41.17;;;24.58;;
23290;SDS011;11814;44.686;10.842;2023-03-01T01:03:52;38.85;;;25.40;;
23290;SDS011;11814;44.686;10.842;2023-03-01T01:06:21;39.00;;;25.33;;
23290;SDS011;11814;44.686;10.842;2023-03-01T01:08:49;40.90;;;24.70;;
23290;SDS011;11814;44.686;10.842;2023-03-01T01:11:16;42.28;;;25.50;;
23290;SDS011;11814;44.686;10.842;2023-03-01T01:13:43;42.33;;;25.45;;
23290;SDS011;11814;44.686;10.842;2023-03-01T01:16:10;42.67;;;25.73;;
23290;SDS011;11814;44.686;10.842;2023-03-01T01:18:37;41.08;;;25.45;;
23290;SDS011;11814;44.686;10.842;2023-03-01T01:21:04;44.30;;;26.02;;
23290;SDS011;11814;44.686;10.842;2023-03-01T01:23:41;45.00;;;26.75;;
23290;SDS011;11814;44.686;10.842;2023-03-01T01:26:18;38.78;;;24.98;;
23290;SDS011;11814;44.686;10.842;2023-03-01T01:28:46;38.30;;;25.08;;
23290;SDS011;11814;44.686;10.842;2023-03-01T01:31:13;38.38;;;25.08;;
23290;SDS011;11814;44.686;10.842;2023-03-01T01:33:39;40.75;;;24.60;;
23290;SDS011;11814;44.686;10.842;2023-03-01T01:36:06;37.58;;;23.88;;
23290;SDS011;11814;44.686;10.842;2023-03-01T01:38:33;39.00;;;23.65;;
23290;SDS011;11814;44.686;10.842;2023-03-01T01:40:59;37.83;;;22.98;;
23290;SDS011;11814;44.686;10.842;2023-03-01T01:43:29;34.28;;;23.27;;
23290;SDS011;11814;44.686;10.842;2023-03-01T01:45:59;35.80;;;23.08;;
23290;SDS011;11814;44.686;10.842;2023-03-01T01:48:43;37.72;;;23.95;;
23290;SDS011;11814;44.686;10.842;2023-03-01T01:51:14;39.92;;;24.42;;
23290;SDS011;11814;44.686;10.842;2023-03-01T01:53:45;40.10;;;24.48;;
23290;SDS011;11814;44.686;10.842;2023-03-01T01:56:15;38.63;;;24.05;;
23290;SDS011;11814;44.686;10.842;2023-03-01T01:58:42;40.60;;;24.42;;
23290;SDS011;11814;44.686;10.842;2023-03-01T02:01:09;38.08;;;23.73;;
23290;SDS011;11814;44.686;10.842;2023-03-01T02:03:36;37.53;;;24.50;;
23290;SDS011;11814;44.686;10.842;2023-03-01T02:06:29;34.67;;;22.85;;
23290;SDS011;11814;44.686;10.842;2023-03-01T02:09:08;36.67;;;23.10;;
23290;SDS011;11814;44.686;10.842;2023-03-01T02:11:38;38.22;;;23.65;;
23290;SDS011;11814;44.686;10.842;2023-03-01T02:14:05;39.25;;;24.67;;
23290;SDS011;11814;44.686;10.842;2023-03-01T02:16:31;37.28;;;23.60;;
23290;SDS011;11814;44.686;10.842;2023-03-01T02:18:57;37.60;;;23.85;;
23290;SDS011;11814;44.686;10.842;2023-03-01T02:23:53;38.67;;;23.55;;
23290;SDS011;11814;44.686;10.842;2023-03-01T02:29:02;36.63;;;23.75;;
23290;SDS011;11814;44.686;10.842;2023-03-01T02:31:28;34.33;;;22.83;;
23290;SDS011;11814;44.686;10.842;2023-03-01T02:34:14;35.53;;;22.27;;
23290;SDS011;11814;44.686;10.842;2023-03-01T02:36:53;35.05;;;22.20;;
23290;SDS011;11814;44.686;10.842;2023-03-01T02:39:26;30.92;;;20.80;;
23290;SDS011;11814;44.686;10.842;2023-03-01T02:41:56;32.45;;;20.42;;
23290;SDS011;11814;44.686;10.842;2023-03-01T02:44:23;34.33;;;22.48;;
23290;SDS011;11814;44.686;10.842;2023-03-01T02:46:50;34.80;;;22.23;;
23290;SDS011;11814;44.686;10.842;2023-03-01T02:49:21;36.88;;;23.02;;
23290;SDS011;11814;44.686;10.842;2023-03-01T02:51:58;34.55;;;20.90;;
23290;SDS011;11814;44.686;10.842;2023-03-01T02:54:38;36.88;;;22.25;;
23290;SDS011;11814;44.686;10.842;2023-03-01T02:57:12;31.55;;;20.83;;
23290;SDS011;11814;44.686;10.842;2023-03-01T02:59:38;34.25;;;22.40;;
23290;SDS011;11814;44.686;10.842;2023-03-01T03:02:18;32.28;;;20.80;;
23290;SDS011;11814;44.686;10.842;2023-03-01T03:07:39;31.70;;;20.58;;
23290;SDS011;11814;44.686;10.842;2023-03-01T03:10:08;31.67;;;19.73;;
23290;SDS011;11814;44.686;10.842;2023-03-01T03:12:39;36.53;;;21.90;;
23290;SDS011;11814;44.686;10.842;2023-03-01T03:15:06;32.97;;;20.92;;
23290;SDS011;11814;44.686;10.842;2023-03-01T03:17:36;33.60;;;20.75;;
23290;SDS011;11814;44.686;10.842;2023-03-01T03:20:03;33.88;;;20.02;;
23290;SDS011;11814;44.686;10.842;2023-03-01T03:22:31;36.33;;;22.15;;
23290;SDS011;11814;44.686;10.842;2023-03-01T03:24:59;35.40;;;21.83;;
23290;SDS011;11814;44.686;10.842;2023-03-01T03:27:24;35.17;;;21.27;;
23290;SDS011;11814;44.686;10.842;2023-03-01T03:29:50;34.03;;;20.73;;
23290;SDS011;11814;44.686;10.842;2023-03-01T03:32:16;31.05;;;20.73;;
23290;SDS011;11814;44.686;10.842;2023-03-01T03:34:42;33.35;;;20.48;;
23290;SDS011;11814;44.686;10.842;2023-03-01T03:37:07;30.67;;;18.92;;
23290;SDS011;11814;44.686;10.842;2023-03-01T03:39:53;31.30;;;19.33;;
23290;SDS011;11814;44.686;10.842;2023-03-01T03:42:20;35.20;;;19.73;;
23290;SDS011;11814;44.686;10.842;2023-03-01T03:44:47;31.80;;;19.95;;
23290;SDS011;11814;44.686;10.842;2023-03-01T03:47:13;32.10;;;18.58;;
23290;SDS011;11814;44.686;10.842;2023-03-01T03:49:39;30.88;;;19.23;;
23290;SDS011;11814;44.686;10.842;2023-03-01T03:52:05;30.02;;;18.77;;
23290;SDS011;11814;44.686;10.842;2023-03-01T03:54:39;31.67;;;19.27;;
23290;SDS011;11814;44.686;10.842;2023-03-01T03:57:05;30.00;;;19.15;;
23290;SDS011;11814;44.686;10.842;2023-03-01T03:59:31;32.33;;;20.10;;
23290;SDS011;11814;44.686;10.842;2023-03-01T04:01:57;30.00;;;19.35;;
23290;SDS011;11814;44.686;10.842;2023-03-01T04:04:22;27.58;;;18.02;;
23290;SDS011;11814;44.686;10.842;2023-03-01T04:06:48;31.45;;;18.95;;
23290;SDS011;11814;44.686;10.842;2023-03-01T04:09:14;30.30;;;19.00;;
23290;SDS011;11814;44.686;10.842;2023-03-01T04:11:40;30.42;;;19.42;;
23290;SDS011;11814;44.686;10.842;2023-03-01T04:14:06;33.45;;;19.55;;
23290;SDS011;11814;44.686;10.842;2023-03-01T04:16:31;31.30;;;19.52;;
23290;SDS011;11814;44.686;10.842;2023-03-01T04:18:57;31.23;;;19.75;;
23290;SDS011;11814;44.686;10.842;2023-03-01T04:21:24;31.35;;;19.75;;
23290;SDS011;11814;44.686;10.842;2023-03-01T04:23:50;33.05;;;19.17;;
23290;SDS011;11814;44.686;10.842;2023-03-01T04:26:17;28.60;;;18.33;;
23290;SDS011;11814;44.686;10.842;2023-03-01T04:28:45;27.67;;;18.20;;
23290;SDS011;11814;44.686;10.842;2023-03-01T04:31:12;28.15;;;17.88;;
23290;SDS011;11814;44.686;10.842;2023-03-01T04:33:47;31.42;;;18.27;;
23290;SDS011;11814;44.686;10.842;2023-03-01T04:36:18;34.22;;;19.35;;
23290;SDS011;11814;44.686;10.842;2023-03-01T04:38:46;32.92;;;20.02;;
23290;SDS011;11814;44.686;10.842;2023-03-01T04:41:12;33.58;;;20.13;;
23290;SDS011;11814;44.686;10.842;2023-03-01T04:43:40;30.15;;;19.17;;
23290;SDS011;11814;44.686;10.842;2023-03-01T04:46:07;32.13;;;20.63;;
23290;SDS011;11814;44.686;10.842;2023-03-01T04:48:37;34.85;;;20.73;;
23290;SDS011;11814;44.686;10.842;2023-03-01T04:51:04;34.22;;;20.20;;
23290;SDS011;11814;44.686;10.842;2023-03-01T04:53:31;33.70;;;19.77;;
23290;SDS011;11814;44.686;10.842;2023-03-01T04:55:57;33.38;;;20.23;;
23290;SDS011;11814;44.686;10.842;2023-03-01T04:58:24;30.45;;;19.85;;
23290;SDS011;11814;44.686;10.842;2023-03-01T05:00:52;35.75;;;20.23;;
23290;SDS011;11814;44.686;10.842;2023-03-01T05:03:18;34.47;;;20.13;;
23290;SDS011;11814;44.686;10.842;2023-03-01T05:05:45;35.40;;;20.15;;
23290;SDS011;11814;44.686;10.842;2023-03-01T05:08:13;36.25;;;20.83;;
23290;SDS011;11814;44.686;10.842;2023-03-01T05:10:45;34.72;;;20.80;;
23290;SDS011;11814;44.686;10.842;2023-03-01T05:13:13;29.77;;;19.65;;
23290;SDS011;11814;44.686;10.842;2023-03-01T05:15:46;34.65;;;20.77;;
23290;SDS011;11814;44.686;10.842;2023-03-01T05:18:23;32.83;;;20.92;;
23290;SDS011;11814;44.686;10.842;2023-03-01T05:20:54;38.22;;;21.65;;
23290;SDS011;11814;44.686;10.842;2023-03-01T05:23:21;36.55;;;20.45;;
23290;SDS011;11814;44.686;10.842;2023-03-01T05:25:47;32.00;;;19.88;;
23290;SDS011;11814;44.686;10.842;2023-03-01T05:28:14;33.28;;;20.17;;
23290;SDS011;11814;44.686;10.842;2023-03-01T05:30:40;35.97;;;19.73;;
23290;SDS011;11814;44.686;10.842;2023-03-01T05:33:07;31.38;;;20.48;;
23290;SDS011;11814;44.686;10.842;2023-03-01T05:35:41;33.63;;;21.15;;
23290;SDS011;11814;44.686;10.842;2023-03-01T05:38:09;37.72;;;19.77;;
23290;SDS011;11814;44.686;10.842;2023-03-01T05:40:38;31.02;;;19.83;;
23290;SDS011;11814;44.686;10.842;2023-03-01T05:43:05;32.38;;;19.65;;
23290;SDS011;11814;44.686;10.842;2023-03-01T05:45:31;38.65;;;21.02;;
23290;SDS011;11814;44.686;10.842;2023-03-01T05:47:58;38.13;;;21.02;;
23290;SDS011;11814;44.686;10.842;2023-03-01T05:50:25;30.65;;;20.02;;
23290;SDS011;11814;44.686;10.842;2023-03-01T05:52:56;35.83;;;21.42;;
23290;SDS011;11814;44.686;10.842;2023-03-01T05:55:27;36.20;;;20.38;;
23290;SDS011;11814;44.686;10.842;2023-03-01T05:57:54;30.38;;;20.00;;
23290;SDS011;11814;44.686;10.842;2023-03-01T06:00:20;32.83;;;20.42;;
23290;SDS011;11814;44.686;10.842;2023-03-01T06:02:49;31.33;;;20.17;;
23290;SDS011;11814;44.686;10.842;2023-03-01T06:05:16;27.88;;;17.75;;
23290;SDS011;11814;44.686;10.842;2023-03-01T06:07:43;28.25;;;17.38;;
23290;SDS011;11814;44.686;10.842;2023-03-01T06:10:09;28.83;;;17.75;;
23290;SDS011;11814;44.686;10.842;2023-03-01T06:12:36;25.38;;;16.90;;
23290;SDS011;11814;44.686;10.842;2023-03-01T06:15:03;27.52;;;16.73;;
23290;SDS011;11814;44.686;10.842;2023-03-01T06:17:32;26.80;;;16.23;;
23290;SDS011;11814;44.686;10.842;2023-03-01T06:20:06;26.27;;;16.15;;
23290;SDS011;11814;44.686;10.842;2023-03-01T06:22:35;27.15;;;16.80;;
23290;SDS011;11814;44.686;10.842;2023-03-01T06:25:01;28.30;;;17.17;;
23290;SDS011;11814;44.686;10.842;2023-03-01T06:27:28;26.10;;;16.25;;
23290;SDS011;11814;44.686;10.842;2023-03-01T06:29:53;27.88;;;16.85;;
23290;SDS011;11814;44.686;10.842;2023-03-01T06:32:19;29.10;;;18.33;;
23290;SDS011;11814;44.686;10.842;2023-03-01T06:34:45;27.67;;;16.73;;
23290;SDS011;11814;44.686;10.842;2023-03-01T06:37:11;29.35;;;18.13;;
23290;SDS011;11814;44.686;10.842;2023-03-01T06:39:36;29.42;;;17.42;;
23290;SDS011;11814;44.686;10.842;2023-03-01T06:42:02;29.63;;;17.30;;
23290;SDS011;11814;44.686;10.842;2023-03-01T06:44:28;27.05;;;16.98;;
23290;SDS011;11814;44.686;10.842;2023-03-01T06:46:54;28.25;;;17.42;;
23290;SDS011;11814;44.686;10.842;2023-03-01T06:49:20;29.40;;;17.85;;
23290;SDS011;11814;44.686;10.842;2023-03-01T06:51:46;29.98;;;17.90;;
23290;SDS011;11814;44.686;10.842;2023-03-01T06:54:12;26.65;;;16.67;;
23290;SDS011;11814;44.686;10.842;2023-03-01T06:56:38;26.33;;;17.80;;
23290;SDS011;11814;44.686;10.842;2023-03-01T06:59:03;28.77;;;17.92;;
23290;SDS011;11814;44.686;10.842;2023-03-01T07:01:30;29.15;;;17.25;;
23290;SDS011;11814;44.686;10.842;2023-03-01T07:03:56;27.67;;;18.23;;
23290;SDS011;11814;44.686;10.842;2023-03-01T07:06:22;26.67;;;16.92;;
23290;SDS011;11814;44.686;10.842;2023-03-01T07:08:48;28.85;;;17.25;;
23290;SDS011;11814;44.686;10.842;2023-03-01T07:11:14;28.20;;;17.05;;
23290;SDS011;11814;44.686;10.842;2023-03-01T07:13:40;28.00;;;17.70;;
23290;SDS011;11814;44.686;10.842;2023-03-01T07:16:06;30.92;;;18.70;;
23290;SDS011;11814;44.686;10.842;2023-03-01T07:18:33;27.65;;;17.42;;
23290;SDS011;11814;44.686;10.842;2023-03-01T07:21:03;30.15;;;17.00;;
23290;SDS011;11814;44.686;10.842;2023-03-01T07:23:30;29.13;;;17.23;;
23290;SDS011;11814;44.686;10.842;2023-03-01T07:25:56;29.80;;;17.15;;
23290;SDS011;11814;44.686;10.842;2023-03-01T07:28:22;27.73;;;16.42;;
23290;SDS011;11814;44.686;10.842;2023-03-01T07:30:49;30.15;;;16.38;;
23290;SDS011;11814;44.686;10.842;2023-03-01T07:33:14;28.13;;;16.58;;
23290;SDS011;11814;44.686;10.842;2023-03-01T07:35:40;23.15;;;15.07;;
23290;SDS011;11814;44.686;10.842;2023-03-01T07:38:06;26.92;;;17.17;;
23290;SDS011;11814;44.686;10.842;2023-03-01T07:40:31;29.33;;;16.60;;
23290;SDS011;11814;44.686;10.842;2023-03-01T07:42:58;28.13;;;16.85;;
23290;SDS011;11814;44.686;10.842;2023-03-01T07:45:24;31.08;;;16.35;;
23290;SDS011;11814;44.686;10.842;2023-03-01T07:47:51;29.98;;;16.45;;
23290;SDS011;11814;44.686;10.842;2023-03-01T07:50:19;25.65;;;16.13;;
23290;SDS011;11814;44.686;10.842;2023-03-01T07:52:45;30.35;;;17.00;;
23290;SDS011;11814;44.686;10.842;2023-03-01T07:55:12;27.25;;;16.55;;
23290;SDS011;11814;44.686;10.842;2023-03-01T07:57:38;29.55;;;16.92;;
23290;SDS011;11814;44.686;10.842;2023-03-01T08:00:04;28.02;;;17.05;;
23290;SDS011;11814;44.686;10.842;2023-03-01T08:02:31;30.40;;;17.88;;
23290;SDS011;11814;44.686;10.842;2023-03-01T08:04:57;29.73;;;17.83;;
23290;SDS011;11814;44.686;10.842;2023-03-01T08:07:23;27.73;;;17.77;;
23290;SDS011;11814;44.686;10.842;2023-03-01T08:09:48;34.53;;;19.75;;
23290;SDS011;11814;44.686;10.842;2023-03-01T08:12:14;39.35;;;22.05;;
23290;SDS011;11814;44.686;10.842;2023-03-01T08:14:42;38.38;;;23.27;;
23290;SDS011;11814;44.686;10.842;2023-03-01T08:17:07;34.80;;;22.48;;
23290;SDS011;11814;44.686;10.842;2023-03-01T08:19:33;40.30;;;23.13;;
23290;SDS011;11814;44.686;10.842;2023-03-01T08:22:00;36.35;;;22.50;;
23290;SDS011;11814;44.686;10.842;2023-03-01T08:24:27;37.90;;;22.67;;
23290;SDS011;11814;44.686;10.842;2023-03-01T08:26:53;36.90;;;22.88;;
23290;SDS011;11814;44.686;10.842;2023-03-01T08:29:19;39.33;;;23.52;;
23290;SDS011;11814;44.686;10.842;2023-03-01T08:31:46;41.42;;;24.67;;
23290;SDS011;11814;44.686;10.842;2023-03-01T08:34:13;47.75;;;26.52;;
23290;SDS011;11814;44.686;10.842;2023-03-01T08:36:42;44.60;;;27.40;;
23290;SDS011;11814;44.686;10.842;2023-03-01T08:39:13;44.13;;;26.17;;
23290;SDS011;11814;44.686;10.842;2023-03-01T08:41:40;39.67;;;24.20;;
23290;SDS011;11814;44.686;10.842;2023-03-01T08:44:07;39.67;;;24.17;;
23290;SDS011;11814;44.686;10.842;2023-03-01T08:46:38;41.53;;;24.40;;
23290;SDS011;11814;44.686;10.842;2023-03-01T08:49:10;40.53;;;22.63;;
23290;SDS011;11814;44.686;10.842;2023-03-01T08:51:38;39.83;;;24.08;;
23290;SDS011;11814;44.686;10.842;2023-03-01T08:54:05;35.40;;;22.67;;
23290;SDS011;11814;44.686;10.842;2023-03-01T08:56:32;44.15;;;24.45;;
23290;SDS011;11814;44.686;10.842;2023-03-01T08:58:59;38.95;;;24.60;;
23290;SDS011;11814;44.686;10.842;2023-03-01T09:01:25;40.67;;;23.50;;
23290;SDS011;11814;44.686;10.842;2023-03-01T09:03:50;39.45;;;24.33;;
23290;SDS011;11814;44.686;10.842;2023-03-01T09:06:17;41.63;;;25.33;;
23290;SDS011;11814;44.686;10.842;2023-03-01T09:08:43;40.65;;;22.75;;
23290;SDS011;11814;44.686;10.842;2023-03-01T09:11:12;44.70;;;27.55;;
23290;SDS011;11814;44.686;10.842;2023-03-01T09:13:41;44.08;;;25.85;;
23290;SDS011;11814;44.686;10.842;2023-03-01T09:16:07;44.47;;;26.92;;
23290;SDS011;11814;44.686;10.842;2023-03-01T09:18:33;46.95;;;26.05;;
23290;SDS011;11814;44.686;10.842;2023-03-01T09:23:35;40.83;;;26.25;;
23290;SDS011;11814;44.686;10.842;2023-03-01T09:26:02;43.38;;;24.67;;
23290;SDS011;11814;44.686;10.842;2023-03-01T09:28:28;42.53;;;25.38;;
23290;SDS011;11814;44.686;10.842;2023-03-01T09:30:57;45.63;;;26.10;;
23290;SDS011;11814;44.686;10.842;2023-03-01T09:33:24;40.15;;;24.05;;
23290;SDS011;11814;44.686;10.842;2023-03-01T09:35:55;40.80;;;24.75;;
23290;SDS011;11814;44.686;10.842;2023-03-01T09:38:23;43.10;;;24.65;;
23290;SDS011;11814;44.686;10.842;2023-03-01T09:40:49;38.75;;;23.38;;
23290;SDS011;11814;44.686;10.842;2023-03-01T09:43:18;34.83;;;23.02;;
23290;SDS011;11814;44.686;10.842;2023-03-01T09:45:50;38.38;;;23.30;;
23290;SDS011;11814;44.686;10.842;2023-03-01T09:48:20;35.33;;;22.65;;
23290;SDS011;11814;44.686;10.842;2023-03-01T09:50:49;40.08;;;24.42;;
23290;SDS011;11814;44.686;10.842;2023-03-01T09:53:17;33.08;;;22.30;;
23290;SDS011;11814;44.686;10.842;2023-03-01T09:55:54;37.85;;;22.63;;
23290;SDS011;11814;44.686;10.842;2023-03-01T10:01:02;34.00;;;20.60;;
23290;SDS011;11814;44.686;10.842;2023-03-01T10:03:43;34.80;;;19.67;;
23290;SDS011;11814;44.686;10.842;2023-03-01T10:06:21;34.30;;;20.25;;
23290;SDS011;11814;44.686;10.842;2023-03-01T10:08:53;35.25;;;18.88;;
23290;SDS011;11814;44.686;10.842;2023-03-01T10:11:36;31.88;;;19.30;;
23290;SDS011;11814;44.686;10.842;2023-03-01T10:14:20;29.77;;;18.45;;
23290;SDS011;11814;44.686;10.842;2023-03-01T10:19:39;28.50;;;17.63;;
23290;SDS011;11814;44.686;10.842;2023-03-01T10:24:40;24.85;;;15.25;;
23290;SDS011;11814;44.686;10.842;2023-03-01T10:27:21;27.60;;;16.67;;
23290;SDS011;11814;44.686;10.842;2023-03-01T10:32:26;27.95;;;17.77;;
23290;SDS011;11814;44.686;10.842;2023-03-01T10:34:52;31.35;;;17.92;;
23290;SDS011;11814;44.686;10.842;2023-03-01T10:37:19;28.98;;;19.08;;
23290;SDS011;11814;44.686;10.842;2023-03-01T10:39:58;30.58;;;17.90;;
23290;SDS011;11814;44.686;10.842;2023-03-01T10:42:31;27.98;;;18.08;;
23290;SDS011;11814;44.686;10.842;2023-03-01T10:45:14;29.42;;;18.67;;
23290;SDS011;11814;44.686;10.842;2023-03-01T10:53:32;32.50;;;18.15;;
23290;SDS011;11814;44.686;10.842;2023-03-01T10:58:37;29.85;;;18.40;;
23290;SDS011;11814;44.686;10.842;2023-03-01T11:01:06;30.02;;;19.38;;
23290;SDS011;11814;44.686;10.842;2023-03-01T11:06:31;33.08;;;19.50;;
23290;SDS011;11814;44.686;10.842;2023-03-01T11:09:01;33.42;;;19.92;;
23290;SDS011;11814;44.686;10.842;2023-03-01T11:11:40;33.75;;;19.98;;
23290;SDS011;11814;44.686;10.842;2023-03-01T11:14:07;33.70;;;19.60;;
23290;SDS011;11814;44.686;10.842;2023-03-01T11:16:44;29.30;;;19.17;;
23290;SDS011;11814;44.686;10.842;2023-03-01T11:21:41;31.05;;;20.08;;
23290;SDS011;11814;44.686;10.842;2023-03-01T11:24:37;32.10;;;19.60;;
23290;SDS011;11814;44.686;10.842;2023-03-01T11:27:28;30.42;;;18.65;;
23290;SDS011;11814;44.686;10.842;2023-03-01T11:30:12;30.88;;;19.52;;
23290;SDS011;11814;44.686;10.842;2023-03-01T11:35:30;27.75;;;17.65;;
23290;SDS011;11814;44.686;10.842;2023-03-01T11:41:06;32.78;;;18.45;;
23290;SDS011;11814;44.686;10.842;2023-03-01T12:08:40;32.00;;;19.67;;
23290;SDS011;11814;44.686;10.842;2023-03-01T12:11:30;36.75;;;19.55;;
23290;SDS011;11814;44.686;10.842;2023-03-01T12:22:29;34.13;;;19.90;;
23290;SDS011;11814;44.686;10.842;2023-03-01T12:25:58;34.00;;;20.60;;
23290;SDS011;11814;44.686;10.842;2023-03-01T12:33:49;39.35;;;22.80;;
23290;SDS011;11814;44.686;10.842;2023-03-01T12:37:05;41.65;;;23.25;;
23290;SDS011;11814;44.686;10.842;2023-03-01T12:45:12;45.67;;;24.70;;
23290;SDS011;11814;44.686;10.842;2023-03-01T12:50:52;41.92;;;24.65;;
23290;SDS011;11814;44.686;10.842;2023-03-01T12:53:21;35.72;;;21.48;;
23290;SDS011;11814;44.686;10.842;2023-03-01T12:55:53;37.30;;;21.75;;
23290;SDS011;11814;44.686;10.842;2023-03-01T12:58:38;37.60;;;21.77;;
23290;SDS011;11814;44.686;10.842;2023-03-01T13:01:32;39.55;;;23.35;;
23290;SDS011;11814;44.686;10.842;2023-03-01T13:07:03;37.75;;;21.65;;
23290;SDS011;11814;44.686;10.842;2023-03-01T13:12:46;38.83;;;21.40;;
23290;SDS011;11814;44.686;10.842;2023-03-01T13:18:03;36.25;;;21.05;;
23290;SDS011;11814;44.686;10.842;2023-03-01T13:23:08;39.03;;;22.20;;
23290;SDS011;11814;44.686;10.842;2023-03-01T13:25:38;37.55;;;21.10;;
23290;SDS011;11814;44.686;10.842;2023-03-01T13:41:51;34.22;;;20.27;;
23290;SDS011;11814;44.686;10.842;2023-03-01T13:55:16;35.63;;;20.55;;
23290;SDS011;11814;44.686;10.842;2023-03-01T13:57:47;34.45;;;19.15;;
23290;SDS011;11814;44.686;10.842;2023-03-01T14:00:34;34.85;;;19.17;;
23290;SDS011;11814;44.686;10.842;2023-03-01T14:03:08;31.95;;;19.75;;
23290;SDS011;11814;44.686;10.842;2023-03-01T14:05:34;33.75;;;20.00;;
23290;SDS011;11814;44.686;10.842;2023-03-01T14:08:01;33.20;;;19.90;;
23290;SDS011;11814;44.686;10.842;2023-03-01T14:19:20;33.65;;;19.27;;
23290;SDS011;11814;44.686;10.842;2023-03-01T14:24:44;35.00;;;20.13;;
23290;SDS011;11814;44.686;10.842;2023-03-01T14:27:16;31.13;;;19.92;;
23290;SDS011;11814;44.686;10.842;2023-03-01T14:29:43;35.80;;;22.33;;
23290;SDS011;11814;44.686;10.842;2023-03-01T14:32:20;37.03;;;21.67;;
23290;SDS011;11814;44.686;10.842;2023-03-01T14:34:49;38.42;;;22.00;;
23290;SDS011;11814;44.686;10.842;2023-03-01T14:39:50;37.47;;;22.13;;
23290;SDS011;11814;44.686;10.842;2023-03-01T14:42:17;41.75;;;23.48;;
23290;SDS011;11814;44.686;10.842;2023-03-01T14:44:47;36.65;;;22.02;;
23290;SDS011;11814;44.686;10.842;2023-03-01T14:47:20;42.60;;;22.95;;
23290;SDS011;11814;44.686;10.842;2023-03-01T14:49:57;38.05;;;23.60;;
23290;SDS011;11814;44.686;10.842;2023-03-01T14:52:36;36.67;;;22.42;;
23290;SDS011;11814;44.686;10.842;2023-03-01T14:55:05;37.55;;;22.98;;
23290;SDS011;11814;44.686;10.842;2023-03-01T14:57:42;38.60;;;22.92;;
23290;SDS011;11814;44.686;10.842;2023-03-01T15:00:10;43.92;;;24.02;;
23290;SDS011;11814;44.686;10.842;2023-03-01T15:02:47;42.97;;;24.20;;
23290;SDS011;11814;44.686;10.842;2023-03-01T15:05:15;45.47;;;25.58;;
23290;SDS011;11814;44.686;10.842;2023-03-01T15:07:43;41.83;;;24.33;;
23290;SDS011;11814;44.686;10.842;2023-03-01T15:10:23;40.78;;;24.65;;
23290;SDS011;11814;44.686;10.842;2023-03-01T15:12:54;42.08;;;24.67;;
23290;SDS011;11814;44.686;10.842;2023-03-01T15:15:34;37.40;;;22.67;;
23290;SDS011;11814;44.686;10.842;2023-03-01T15:18:03;40.90;;;23.98;;
23290;SDS011;11814;44.686;10.842;2023-03-01T15:20:39;42.50;;;25.95;;
23290;SDS011;11814;44.686;10.842;2023-03-01T15:23:05;42.88;;;25.08;;
23290;SDS011;11814;44.686;10.842;2023-03-01T15:25:43;41.80;;;24.67;;
23290;SDS011;11814;44.686;10.842;2023-03-01T15:28:12;42.83;;;24.08;;
23290;SDS011;11814;44.686;10.842;2023-03-01T15:30:45;43.00;;;24.48;;
23290;SDS011;11814;44.686;10.842;2023-03-01T15:33:27;41.25;;;23.95;;
23290;SDS011;11814;44.686;10.842;2023-03-01T15:35:56;39.30;;;23.15;;
23290;SDS011;11814;44.686;10.842;2023-03-01T15:38:25;38.20;;;23.42;;
23290;SDS011;11814;44.686;10.842;2023-03-01T15:41:20;40.10;;;23.15;;
23290;SDS011;11814;44.686;10.842;2023-03-01T15:43:52;37.95;;;22.73;;
23290;SDS011;11814;44.686;10.842;2023-03-01T15:46:23;36.80;;;22.98;;
23290;SDS011;11814;44.686;10.842;2023-03-01T15:48:59;38.63;;;23.10;;
23290;SDS011;11814;44.686;10.842;2023-03-01T15:51:33;38.38;;;23.25;;
23290;SDS011;11814;44.686;10.842;2023-03-01T15:54:03;38.65;;;23.45;;
23290;SDS011;11814;44.686;10.842;2023-03-01T15:56:34;40.08;;;23.08;;
23290;SDS011;11814;44.686;10.842;2023-03-01T15:59:01;39.97;;;23.70;;
23290;SDS011;11814;44.686;10.842;2023-03-01T16:01:28;36.78;;;22.67;;
23290;SDS011;11814;44.686;10.842;2023-03-01T16:03:54;40.63;;;23.67;;
23290;SDS011;11814;44.686;10.842;2023-03-01T16:06:19;40.17;;;23.45;;
23290;SDS011;11814;44.686;10.842;2023-03-01T16:08:45;38.70;;;22.48;;
23290;SDS011;11814;44.686;10.842;2023-03-01T16:11:16;38.95;;;22.55;;
23290;SDS011;11814;44.686;10.842;2023-03-01T16:13:43;39.58;;;23.05;;
23290;SDS011;11814;44.686;10.842;2023-03-01T16:16:12;37.05;;;24.27;;
23290;SDS011;11814;44.686;10.842;2023-03-01T16:18:44;39.45;;;23.90;;
23290;SDS011;11814;44.686;10.842;2023-03-01T16:21:12;38.97;;;22.98;;
23290;SDS011;11814;44.686;10.842;2023-03-01T16:23:45;38.53;;;23.48;;
23290;SDS011;11814;44.686;10.842;2023-03-01T16:26:11;36.97;;;22.77;;
23290;SDS011;11814;44.686;10.842;2023-03-01T16:28:38;38.78;;;23.35;;
23290;SDS011;11814;44.686;10.842;2023-03-01T16:31:05;44.67;;;24.23;;
23290;SDS011;11814;44.686;10.842;2023-03-01T16:33:31;39.22;;;23.55;;
23290;SDS011;11814;44.686;10.842;2023-03-01T16:35:57;36.75;;;23.30;;
23290;SDS011;11814;44.686;10.842;2023-03-01T16:38:24;41.13;;;24.42;;
23290;SDS011;11814;44.686;10.842;2023-03-01T16:40:51;42.22;;;23.90;;
23290;SDS011;11814;44.686;10.842;2023-03-01T16:43:17;39.70;;;24.23;;
23290;SDS011;11814;44.686;10.842;2023-03-01T16:45:43;37.88;;;22.70;;